sensor_id;sensor_type;location;lat;lon;timestamp;pressure;altitude;pressure_sealevel;temperature;humidity
48792;BME280;34587;48.816;9.420;2023-03-11T00:00:11;97699.47;;;2.91;63.21
48792;BME280;34587;48.816;9.420;2023-03-11T00:02:38;97703.72;;;2.91;63.41
48792;BME280;34587;48.816;9.420;2023-03-11T00:05:05;97700.31;;;2.89;63.25
48792;BME280;34587;48.816;9.420;2023-03-11T00:07:30;97699.44;;;2.94;64.64
48792;BME280;34587;48.816;9.420;2023-03-11T00:09:55;97709.69;;;2.91;63.47
48792;BME280;34587;48.816;9.420;2023-03-11T00:12:20;97702.88;;;2.87;62.83
48792;BME280;34587;48.816;9.420;2023-03-11T00:14:46;97711.44;;;2.81;62.29
48792;BME280;34587;48.816;9.420;2023-03-11T00:17:11;97716.53;;;2.83;61.48
48792;BME280;34587;48.816;9.420;2023-03-11T00:19:36;97713.16;;;2.82;62.31
48792;BME280;34587;48.816;9.420;2023-03-11T00:22:02;97714.00;;;2.81;62.61
48792;BME280;34587;48.816;9.420;2023-03-11T00:24:27;97733.63;;;2.81;62.59
48792;BME280;34587;48.816;9.420;2023-03-11T00:26:52;97736.19;;;2.76;62.38
48792;BME280;34587;48.816;9.420;2023-03-11T00:29:18;97746.44;;;2.73;62.74
48792;BME280;34587;48.816;9.420;2023-03-11T00:31:43;97747.31;;;2.63;63.32
48792;BME280;34587;48.816;9.420;2023-03-11T00:34:08;97737.09;;;2.58;63.77
48792;BME280;34587;48.816;9.420;2023-03-11T00:36:33;97733.72;;;2.52;64.33
48792;BME280;34587;48.816;9.420;2023-03-11T00:39:01;97726.06;;;2.47;64.69
48792;BME280;34587;48.816;9.420;2023-03-11T00:41:30;97740.56;;;2.44;65.05
48792;BME280;34587;48.816;9.420;2023-03-11T00:43:56;97755.03;;;2.42;65.53
48792;BME280;34587;48.816;9.420;2023-03-11T00:46:21;97744.81;;;2.42;65.63
48792;BME280;34587;48.816;9.420;2023-03-11T00:48:49;97745.69;;;2.42;65.86
48792;BME280;34587;48.816;9.420;2023-03-11T00:51:15;97753.34;;;2.41;65.90
48792;BME280;34587;48.816;9.420;2023-03-11T00:53:41;97741.41;;;2.37;65.99
48792;BME280;34587;48.816;9.420;2023-03-11T00:56:08;97743.16;;;2.33;66.00
48792;BME280;34587;48.816;9.420;2023-03-11T00:58:33;97749.09;;;2.32;66.15
48792;BME280;34587;48.816;9.420;2023-03-11T05:17:00;97928.94;;;-0.33;72.87
48792;BME280;34587;48.816;9.420;2023-03-11T05:19:25;97934.09;;;-0.27;72.75
48792;BME280;34587;48.816;9.420;2023-03-11T05:21:59;97943.38;;;-0.33;72.66
48792;BME280;34587;48.816;9.420;2023-03-11T05:24:25;97948.47;;;-0.32;72.85
48792;BME280;34587;48.816;9.420;2023-03-11T05:26:51;97952.75;;;-0.28;72.81
48792;BME280;34587;48.816;9.420;2023-03-11T05:29:16;97947.50;;;-0.43;73.45
48792;BME280;34587;48.816;9.420;2023-03-11T05:31:42;97945.00;;;-0.37;73.79
48792;BME280;34587;48.816;9.420;2023-03-11T05:34:07;97953.31;;;-0.53;73.74
48792;BME280;34587;48.816;9.420;2023-03-11T05:36:32;97949.03;;;-0.54;74.63
48792;BME280;34587;48.816;9.420;2023-03-11T05:38:58;97960.84;;;-0.59;76.05
48792;BME280;34587;48.816;9.420;2023-03-11T05:41:23;97953.94;;;-0.69;76.42
48792;BME280;34587;48.816;9.420;2023-03-11T05:43:48;97955.72;;;-0.62;75.01
48792;BME280;34587;48.816;9.420;2023-03-11T05:46:14;97964.19;;;-0.63;74.65
48792;BME280;34587;48.816;9.420;2023-03-11T05:48:39;97958.16;;;-0.70;76.52
48792;BME280;34587;48.816;9.420;2023-03-11T05:51:09;97965.78;;;-0.71;76.07
48792;BME280;34587;48.816;9.420;2023-03-11T05:53:34;97959.00;;;-0.71;75.80
48792;BME280;34587;48.816;9.420;2023-03-11T05:56:00;97961.72;;;-0.57;76.50
48792;BME280;34587;48.816;9.420;2023-03-11T05:58:27;97961.63;;;-0.65;75.89
48792;BME280;34587;48.816;9.420;2023-03-11T06:00:52;97963.38;;;-0.62;76.44
48792;BME280;34587;48.816;9.420;2023-03-11T06:03:18;97969.38;;;-0.54;74.94
48792;BME280;34587;48.816;9.420;2023-03-11T06:05:48;97977.25;;;-0.37;73.73
48792;BME280;34587;48.816;9.420;2023-03-11T06:08:14;97979.97;;;-0.23;73.61
48792;BME280;34587;48.816;9.420;2023-03-11T06:10:41;97990.09;;;-0.27;73.36
48792;BME280;34587;48.816;9.420;2023-03-11T06:13:06;97986.81;;;-0.16;73.12
48792;BME280;34587;48.816;9.420;2023-03-11T06:15:33;97993.88;;;0.09;72.10
48792;BME280;34587;48.816;9.420;2023-03-11T06:17:58;97986.28;;;0.12;71.62
48792;BME280;34587;48.816;9.420;2023-03-11T06:20:24;97978.78;;;0.28;71.34
48792;BME280;34587;48.816;9.420;2023-03-11T06:22:50;97981.56;;;0.50;71.37
48792;BME280;34587;48.816;9.420;2023-03-11T06:25:15;97982.50;;;0.60;69.98
48792;BME280;34587;48.816;9.420;2023-03-11T06:27:41;97987.84;;;0.94;70.17
48792;BME280;34587;48.816;9.420;2023-03-11T06:30:09;97997.94;;;0.79;69.38
48792;BME280;34587;48.816;9.420;2023-03-11T06:32:35;97989.59;;;0.98;69.09
48792;BME280;34587;48.816;9.420;2023-03-11T06:35:01;98003.00;;;0.75;69.58
48792;BME280;34587;48.816;9.420;2023-03-11T06:37:27;97998.03;;;0.88;70.20
48792;BME280;34587;48.816;9.420;2023-03-11T06:39:52;98006.63;;;1.05;69.74
48792;BME280;34587;48.816;9.420;2023-03-11T06:42:18;98006.56;;;0.96;69.61
48792;BME280;34587;48.816;9.420;2023-03-11T06:44:46;98004.91;;;0.98;70.17
48792;BME280;34587;48.816;9.420;2023-03-11T06:47:11;98019.28;;;0.90;70.06
48792;BME280;34587;48.816;9.420;2023-03-11T06:49:37;98025.25;;;0.93;69.69
48792;BME280;34587;48.816;9.420;2023-03-11T06:52:05;98027.00;;;0.99;70.61
48792;BME280;34587;48.816;9.420;2023-03-11T06:54:30;98018.72;;;1.26;68.96
48792;BME280;34587;48.816;9.420;2023-03-11T06:56:56;98032.38;;;1.39;68.14
48792;BME280;34587;48.816;9.420;2023-03-11T06:59:21;98040.91;;;1.41;67.61
48792;BME280;34587;48.816;9.420;2023-03-11T07:01:47;98038.38;;;1.48;67.63
48792;BME280;34587;48.816;9.420;2023-03-11T07:04:12;98043.38;;;1.30;68.21
48792;BME280;34587;48.816;9.420;2023-03-11T07:06:37;98050.38;;;1.57;68.17
48792;BME280;34587;48.816;9.420;2023-03-11T07:09:03;98052.88;;;1.54;66.87
48792;BME280;34587;48.816;9.420;2023-03-11T07:11:28;98058.91;;;1.64;66.61
48792;BME280;34587;48.816;9.420;2023-03-11T07:13:54;98059.91;;;1.89;65.38
48792;BME280;34587;48.816;9.420;2023-03-11T07:16:23;98053.00;;;1.72;65.48
48792;BME280;34587;48.816;9.420;2023-03-11T07:18:50;98057.09;;;1.46;66.52
48792;BME280;34587;48.816;9.420;2023-03-11T07:21:18;98056.25;;;1.47;65.69
48792;BME280;34587;48.816;9.420;2023-03-11T07:23:44;98052.16;;;1.75;65.21
48792;BME280;34587;48.816;9.420;2023-03-11T07:26:13;98054.78;;;1.86;64.95
48792;BME280;34587;48.816;9.420;2023-03-11T07:28:39;98053.94;;;1.93;64.30
48792;BME280;34587;48.816;9.420;2023-03-11T07:31:15;98058.97;;;1.77;64.02
48792;BME280;34587;48.816;9.420;2023-03-11T07:33:41;98058.16;;;1.88;63.78
48792;BME280;34587;48.816;9.420;2023-03-11T07:36:12;98059.84;;;1.83;64.10
48792;BME280;34587;48.816;9.420;2023-03-11T07:38:38;98060.69;;;1.78;64.53
48792;BME280;34587;48.816;9.420;2023-03-11T07:41:05;98066.63;;;1.74;63.98
48792;BME280;34587;48.816;9.420;2023-03-11T07:43:31;98065.72;;;1.66;64.80
48792;BME280;34587;48.816;9.420;2023-03-11T07:48:28;98078.69;;;2.00;64.30
48792;BME280;34587;48.816;9.420;2023-03-11T07:51:04;98080.34;;;1.89;63.66
48792;BME280;34587;48.816;9.420;2023-03-11T07:53:30;98093.00;;;1.73;63.15
48792;BME280;34587;48.816;9.420;2023-03-11T07:55:57;98082.97;;;2.12;63.27
48792;BME280;34587;48.816;9.420;2023-03-11T07:58:22;98080.22;;;1.73;63.06
48792;BME280;34587;48.816;9.420;2023-03-11T08:00:48;98075.41;;;2.28;62.35
48792;BME280;34587;48.816;9.420;2023-03-11T08:03:13;98075.44;;;2.50;61.78
48792;BME280;34587;48.816;9.420;2023-03-11T08:05:38;98087.25;;;2.14;62.36
48792;BME280;34587;48.816;9.420;2023-03-11T08:08:04;98097.38;;;1.90;62.48
48792;BME280;34587;48.816;9.420;2023-03-11T08:10:29;98098.47;;;2.54;61.10
48792;BME280;34587;48.816;9.420;2023-03-11T08:12:54;98102.69;;;2.42;60.57
48792;BME280;34587;48.816;9.420;2023-03-11T08:15:20;98101.03;;;2.61;59.99
48792;BME280;34587;48.816;9.420;2023-03-11T08:17:45;98106.91;;;2.32;61.16
48792;BME280;34587;48.816;9.420;2023-03-11T08:20:10;98109.50;;;2.34;60.82
48792;BME280;34587;48.816;9.420;2023-03-11T08:22:36;98104.44;;;2.55;61.27
48792;BME280;34587;48.816;9.420;2023-03-11T08:25:01;98108.69;;;2.54;62.25
48792;BME280;34587;48.816;9.420;2023-03-11T08:27:27;98119.00;;;2.77;60.57
48792;BME280;34587;48.816;9.420;2023-03-11T08:29:53;98117.28;;;2.76;59.62
48792;BME280;34587;48.816;9.420;2023-03-11T08:32:18;98119.91;;;3.10;59.61
48792;BME280;34587;48.816;9.420;2023-03-11T08:34:44;98119.91;;;3.41;57.62
48792;BME280;34587;48.816;9.420;2023-03-11T08:37:09;98119.03;;;3.48;57.93
48792;BME280;34587;48.816;9.420;2023-03-11T08:39:34;98128.44;;;3.33;57.83
48792;BME280;34587;48.816;9.420;2023-03-11T08:42:00;98120.66;;;4.01;56.13
48792;BME280;34587;48.816;9.420;2023-03-11T08:44:27;98118.09;;;4.04;54.96
48792;BME280;34587;48.816;9.420;2023-03-11T08:46:52;98124.97;;;3.93;55.75
48792;BME280;34587;48.816;9.420;2023-03-11T08:49:17;98131.84;;;3.26;57.98
48792;BME280;34587;48.816;9.420;2023-03-11T08:51:43;98130.09;;;2.82;58.20
48792;BME280;34587;48.816;9.420;2023-03-11T08:54:08;98137.63;;;2.41;60.89
48792;BME280;34587;48.816;9.420;2023-03-11T08:56:33;98142.75;;;2.43;60.30
48792;BME280;34587;48.816;9.420;2023-03-11T08:58:59;98119.84;;;7.03;50.25
48792;BME280;34587;48.816;9.420;2023-03-11T09:01:24;98109.38;;;9.72;42.26
48792;BME280;34587;48.816;9.420;2023-03-11T09:03:50;98094.22;;;13.53;35.62
48792;BME280;34587;48.816;9.420;2023-03-11T09:06:16;98090.22;;;14.86;32.12
48792;BME280;34587;48.816;9.420;2023-03-11T09:08:43;98106.06;;;12.95;34.51
48792;BME280;34587;48.816;9.420;2023-03-11T09:11:09;98110.97;;;11.55;36.84
48792;BME280;34587;48.816;9.420;2023-03-11T09:13:34;98131.44;;;8.31;42.38
48792;BME280;34587;48.816;9.420;2023-03-11T09:16:00;98127.00;;;7.41;45.41
48792;BME280;34587;48.816;9.420;2023-03-11T09:18:25;98121.75;;;7.97;45.74
48792;BME280;34587;48.816;9.420;2023-03-11T09:20:52;98099.56;;;13.06;35.88
48792;BME280;34587;48.816;9.420;2023-03-11T09:23:22;98130.00;;;8.16;42.33
48792;BME280;34587;48.816;9.420;2023-03-11T09:25:47;98145.53;;;6.44;48.49
48792;BME280;34587;48.816;9.420;2023-03-11T09:28:13;98160.66;;;4.60;51.35
48792;BME280;34587;48.816;9.420;2023-03-11T09:30:38;98160.81;;;4.17;52.93
48792;BME280;34587;48.816;9.420;2023-03-11T09:33:03;98155.66;;;4.26;53.44
48792;BME280;34587;48.816;9.420;2023-03-11T09:35:29;98148.53;;;7.37;47.42
48792;BME280;34587;48.816;9.420;2023-03-11T09:37:54;98123.53;;;11.15;38.84
48792;BME280;34587;48.816;9.420;2023-03-11T09:40:21;98121.47;;;12.54;35.97
48792;BME280;34587;48.816;9.420;2023-03-11T09:43:05;98122.91;;;13.08;34.82
48792;BME280;34587;48.816;9.420;2023-03-11T09:45:38;98153.41;;;8.07;41.40
48792;BME280;34587;48.816;9.420;2023-03-11T09:51:26;98137.66;;;11.04;37.00
48792;BME280;34587;48.816;9.420;2023-03-11T09:54:03;98149.75;;;8.18;42.52
48792;BME280;34587;48.816;9.420;2023-03-11T09:56:33;98147.72;;;8.37;44.34
48792;BME280;34587;48.816;9.420;2023-03-11T09:59:04;98142.28;;;8.49;41.38
48792;BME280;34587;48.816;9.420;2023-03-11T10:01:35;98136.28;;;9.28;40.00
48792;BME280;34587;48.816;9.420;2023-03-11T10:04:13;98130.13;;;9.69;38.82
48792;BME280;34587;48.816;9.420;2023-03-11T10:06:43;98139.53;;;7.64;40.92
48792;BME280;34587;48.816;9.420;2023-03-11T10:09:29;98156.19;;;6.83;44.05
48792;BME280;34587;48.816;9.420;2023-03-11T10:14:36;98155.16;;;5.24;49.46
48792;BME280;34587;48.816;9.420;2023-03-11T10:20:02;98150.97;;;5.11;49.70
48792;BME280;34587;48.816;9.420;2023-03-11T10:22:37;98147.03;;;5.78;48.27
48792;BME280;34587;48.816;9.420;2023-03-11T10:25:13;98141.00;;;6.62;47.23
48792;BME280;34587;48.816;9.420;2023-03-11T10:27:44;98135.13;;;8.19;43.75
48792;BME280;34587;48.816;9.420;2023-03-11T10:30:29;98130.88;;;11.28;36.98
48792;BME280;34587;48.816;9.420;2023-03-11T10:32:59;98152.41;;;8.14;40.44
48792;BME280;34587;48.816;9.420;2023-03-11T10:35:39;98160.22;;;6.33;44.05
48792;BME280;34587;48.816;9.420;2023-03-11T10:38:21;98163.53;;;5.51;46.87
48792;BME280;34587;48.816;9.420;2023-03-11T10:40:50;98150.72;;;5.46;46.72
48792;BME280;34587;48.816;9.420;2023-03-11T10:43:23;98161.44;;;4.77;50.05
48792;BME280;34587;48.816;9.420;2023-03-11T10:45:51;98157.81;;;5.12;48.83
48792;BME280;34587;48.816;9.420;2023-03-11T10:48:18;98158.94;;;4.65;50.18
48792;BME280;34587;48.816;9.420;2023-03-11T10:53:29;98159.97;;;5.67;48.88
48792;BME280;34587;48.816;9.420;2023-03-11T10:55:56;98153.75;;;5.97;48.10
48792;BME280;34587;48.816;9.420;2023-03-11T10:58:27;98152.22;;;5.73;48.04
48792;BME280;34587;48.816;9.420;2023-03-11T11:03:32;98159.84;;;4.47;49.60
48792;BME280;34587;48.816;9.420;2023-03-11T11:06:03;98163.09;;;4.86;47.96
48792;BME280;34587;48.816;9.420;2023-03-11T11:08:30;98158.97;;;5.86;45.65
48792;BME280;34587;48.816;9.420;2023-03-11T11:11:00;98142.97;;;7.08;45.23
48792;BME280;34587;48.816;9.420;2023-03-11T11:13:31;98147.78;;;8.31;41.63
48792;BME280;34587;48.816;9.420;2023-03-11T11:16:01;98143.28;;;8.84;40.42
48792;BME280;34587;48.816;9.420;2023-03-11T11:18:34;98147.41;;;8.93;40.96
48792;BME280;34587;48.816;9.420;2023-03-11T11:21:06;98123.47;;;14.21;32.40
48792;BME280;34587;48.816;9.420;2023-03-11T11:23:39;98127.94;;;16.06;27.67
48792;BME280;34587;48.816;9.420;2023-03-11T11:26:14;98149.13;;;11.80;31.08
48792;BME280;34587;48.816;9.420;2023-03-11T11:28:40;98148.09;;;10.42;35.28
48792;BME280;34587;48.816;9.420;2023-03-11T11:31:18;98161.03;;;8.61;40.61
48792;BME280;34587;48.816;9.420;2023-03-11T11:33:50;98152.13;;;9.87;37.88
48792;BME280;34587;48.816;9.420;2023-03-11T11:36:16;98150.03;;;10.00;35.82
48792;BME280;34587;48.816;9.420;2023-03-11T11:38:42;98146.34;;;9.76;37.07
48792;BME280;34587;48.816;9.420;2023-03-11T11:41:13;98145.25;;;9.13;38.57
48792;BME280;34587;48.816;9.420;2023-03-11T11:43:45;98138.56;;;12.36;33.53
48792;BME280;34587;48.816;9.420;2023-03-11T11:46:18;98134.94;;;13.97;30.18
48792;BME280;34587;48.816;9.420;2023-03-11T11:51:38;98128.06;;;15.68;27.88
48792;BME280;34587;48.816;9.420;2023-03-11T11:54:15;98157.25;;;10.85;32.74
48792;BME280;34587;48.816;9.420;2023-03-11T11:56:42;98140.25;;;13.31;29.20
48792;BME280;34587;48.816;9.420;2023-03-11T11:59:14;98116.59;;;14.80;28.54
48792;BME280;34587;48.816;9.420;2023-03-11T12:02:02;98105.88;;;18.46;25.28
48792;BME280;34587;48.816;9.420;2023-03-11T12:09:54;98117.81;;;14.52;29.60
48792;BME280;34587;48.816;9.420;2023-03-11T12:12:35;98115.81;;;13.35;31.26
48792;BME280;34587;48.816;9.420;2023-03-11T12:15:23;98106.09;;;14.42;29.66
48792;BME280;34587;48.816;9.420;2023-03-11T12:17:53;98105.22;;;12.47;30.78
48792;BME280;34587;48.816;9.420;2023-03-11T12:20:23;98107.84;;;12.71;31.16
48792;BME280;34587;48.816;9.420;2023-03-11T12:25:31;98121.13;;;8.74;36.11
48792;BME280;34587;48.816;9.420;2023-03-11T12:30:32;98125.81;;;6.42;41.19
48792;BME280;34587;48.816;9.420;2023-03-11T12:33:25;98127.75;;;6.23;41.33
48792;BME280;34587;48.816;9.420;2023-03-11T12:35:54;98124.19;;;6.35;41.38
48792;BME280;34587;48.816;9.420;2023-03-11T12:38:26;98114.88;;;7.50;40.09
48792;BME280;34587;48.816;9.420;2023-03-11T12:41:05;98116.00;;;6.73;41.26
48792;BME280;34587;48.816;9.420;2023-03-11T12:50:54;98120.38;;;7.25;40.64
48792;BME280;34587;48.816;9.420;2023-03-11T12:53:40;98108.31;;;7.80;39.27
48792;BME280;34587;48.816;9.420;2023-03-11T13:01:33;98106.34;;;7.92;40.66
48792;BME280;34587;48.816;9.420;2023-03-11T13:04:24;98105.47;;;7.45;39.34
48792;BME280;34587;48.816;9.420;2023-03-11T13:10:10;98107.22;;;7.43;37.74
48792;BME280;34587;48.816;9.420;2023-03-11T13:12:38;98107.53;;;7.76;36.53
48792;BME280;34587;48.816;9.420;2023-03-11T13:15:35;98105.03;;;8.18;38.46
48792;BME280;34587;48.816;9.420;2023-03-11T13:18:16;98091.72;;;7.94;38.88
48792;BME280;34587;48.816;9.420;2023-03-11T13:20:45;98107.75;;;6.47;40.03
48792;BME280;34587;48.816;9.420;2023-03-11T13:30:58;98100.59;;;6.67;41.28
48792;BME280;34587;48.816;9.420;2023-03-11T13:33:35;98102.34;;;6.68;41.09
48792;BME280;34587;48.816;9.420;2023-03-11T13:39:21;98107.09;;;6.95;39.56
48792;BME280;34587;48.816;9.420;2023-03-11T13:41:50;98104.28;;;7.65;39.34
48792;BME280;34587;48.816;9.420;2023-03-11T13:46:51;98099.94;;;8.15;37.79
48792;BME280;34587;48.816;9.420;2023-03-11T13:51:52;98096.75;;;8.01;39.81
48792;BME280;34587;48.816;9.420;2023-03-11T13:54:32;98106.50;;;7.35;40.33
48792;BME280;34587;48.816;9.420;2023-03-11T13:57:01;98098.69;;;7.89;40.77
48792;BME280;34587;48.816;9.420;2023-03-11T13:59:29;98097.38;;;7.67;39.19
48792;BME280;34587;48.816;9.420;2023-03-11T14:01:57;98099.13;;;8.11;38.91
48792;BME280;34587;48.816;9.420;2023-03-11T14:06:53;98111.94;;;7.17;39.57
48792;BME280;34587;48.816;9.420;2023-03-11T14:09:21;98103.78;;;7.92;40.02
48792;BME280;34587;48.816;9.420;2023-03-11T14:11:47;98106.59;;;8.25;38.92
48792;BME280;34587;48.816;9.420;2023-03-11T14:17:13;98101.72;;;7.11;39.28
48792;BME280;34587;48.816;9.420;2023-03-11T14:19:39;98101.97;;;7.48;38.73
48792;BME280;34587;48.816;9.420;2023-03-11T14:22:07;98108.38;;;7.26;39.95
48792;BME280;34587;48.816;9.420;2023-03-11T14:24:32;98111.66;;;7.35;40.09
48792;BME280;34587;48.816;9.420;2023-03-11T14:27:00;98099.97;;;8.12;38.23
48792;BME280;34587;48.816;9.420;2023-03-11T14:29:30;98106.78;;;7.68;38.23
48792;BME280;34587;48.816;9.420;2023-03-11T14:31:56;98110.94;;;7.26;39.22
48792;BME280;34587;48.816;9.420;2023-03-11T14:34:24;98136.03;;;7.13;39.53
48792;BME280;34587;48.816;9.420;2023-03-11T14:36:56;98117.13;;;7.14;39.71
48792;BME280;34587;48.816;9.420;2023-03-11T14:42:38;98095.94;;;6.95;39.19
48792;BME280;34587;48.816;9.420;2023-03-11T14:45:16;98097.81;;;7.39;38.83
48792;BME280;34587;48.816;9.420;2023-03-11T14:50:16;98103.53;;;6.41;40.83
48792;BME280;34587;48.816;9.420;2023-03-11T14:52:42;98106.06;;;6.42;40.81
48792;BME280;34587;48.816;9.420;2023-03-11T14:55:30;98101.66;;;6.54;39.69
48792;BME280;34587;48.816;9.420;2023-03-11T14:58:04;98092.28;;;6.50;40.38
48792;BME280;34587;48.816;9.420;2023-03-11T15:00:45;98090.13;;;6.82;40.91
48792;BME280;34587;48.816;9.420;2023-03-11T15:05:47;98098.44;;;7.00;40.06
48792;BME280;34587;48.816;9.420;2023-03-11T15:08:16;98103.59;;;7.00;40.56
48792;BME280;34587;48.816;9.420;2023-03-11T15:11:06;98099.16;;;6.48;40.96
48792;BME280;34587;48.816;9.420;2023-03-11T15:13:34;98108.50;;;6.55;42.00
48792;BME280;34587;48.816;9.420;2023-03-11T15:16:02;98107.28;;;6.83;40.37
48792;BME280;34587;48.816;9.420;2023-03-11T15:18:33;98113.75;;;7.09;40.71
48792;BME280;34587;48.816;9.420;2023-03-11T15:21:17;98112.56;;;6.71;39.64
48792;BME280;34587;48.816;9.420;2023-03-11T15:23:48;98107.81;;;6.40;40.73
48792;BME280;34587;48.816;9.420;2023-03-11T15:26:34;98115.53;;;6.40;42.52
48792;BME280;34587;48.816;9.420;2023-03-11T15:29:12;98119.97;;;6.29;41.71
48792;BME280;34587;48.816;9.420;2023-03-11T15:31:41;98120.72;;;6.39;43.48
48792;BME280;34587;48.816;9.420;2023-03-11T15:42:00;98141.66;;;6.04;42.92
48792;BME280;34587;48.816;9.420;2023-03-11T15:47:00;98139.06;;;6.07;43.85
48792;BME280;34587;48.816;9.420;2023-03-11T15:49:27;98140.03;;;5.97;44.02
48792;BME280;34587;48.816;9.420;2023-03-11T15:51:57;98139.38;;;5.73;44.61
48792;BME280;34587;48.816;9.420;2023-03-11T15:54:23;98145.41;;;5.71;44.70
48792;BME280;34587;48.816;9.420;2023-03-11T15:56:48;98151.38;;;5.71;43.85
48792;BME280;34587;48.816;9.420;2023-03-11T15:59:15;98151.53;;;5.50;45.07
48792;BME280;34587;48.816;9.420;2023-03-11T16:01:41;98160.97;;;5.52;44.62
48792;BME280;34587;48.816;9.420;2023-03-11T16:04:12;98166.94;;;5.53;45.20
48792;BME280;34587;48.816;9.420;2023-03-11T16:06:38;98166.94;;;5.53;44.93
48792;BME280;34587;48.816;9.420;2023-03-11T16:09:03;98166.38;;;5.14;45.32
48792;BME280;34587;48.816;9.420;2023-03-11T16:11:29;98162.88;;;5.24;46.01
48792;BME280;34587;48.816;9.420;2023-03-11T16:13:57;98166.19;;;5.38;46.42
48792;BME280;34587;48.816;9.420;2023-03-11T16:16:22;98166.31;;;5.20;45.76
48792;BME280;34587;48.816;9.420;2023-03-11T16:18:47;98168.75;;;5.41;47.21
48792;BME280;34587;48.816;9.420;2023-03-11T16:21:15;98162.00;;;5.28;47.14
48792;BME280;34587;48.816;9.420;2023-03-11T16:23:41;98159.31;;;5.44;47.07
48792;BME280;34587;48.816;9.420;2023-03-11T16:26:09;98154.47;;;5.01;46.60
48792;BME280;34587;48.816;9.420;2023-03-11T16:28:35;98155.31;;;5.00;47.51
48792;BME280;34587;48.816;9.420;2023-03-11T16:31:00;98160.47;;;4.97;49.56
48792;BME280;34587;48.816;9.420;2023-03-11T16:33:25;98159.59;;;4.98;46.88
48792;BME280;34587;48.816;9.420;2023-03-11T16:35:51;98163.84;;;5.08;46.57
48792;BME280;34587;48.816;9.420;2023-03-11T16:38:16;98174.19;;;4.91;48.04
48792;BME280;34587;48.816;9.420;2023-03-11T16:40:44;98161.38;;;4.88;48.14
48792;BME280;34587;48.816;9.420;2023-03-11T16:43:11;98165.63;;;4.94;48.31
48792;BME280;34587;48.816;9.420;2023-03-11T16:45:37;98165.66;;;4.90;48.95
48792;BME280;34587;48.816;9.420;2023-03-11T16:48:03;98169.94;;;4.82;48.40
48792;BME280;34587;48.816;9.420;2023-03-11T16:50:29;98177.69;;;4.73;49.03
48792;BME280;34587;48.816;9.420;2023-03-11T16:52:56;98175.16;;;4.72;47.83
48792;BME280;34587;48.816;9.420;2023-03-11T16:55:23;98181.22;;;4.48;49.30
48792;BME280;34587;48.816;9.420;2023-03-11T16:57:49;98177.81;;;4.46;48.60
48792;BME280;34587;48.816;9.420;2023-03-11T17:00:14;98186.34;;;4.51;48.28
48792;BME280;34587;48.816;9.420;2023-03-11T17:02:42;98190.63;;;4.52;48.25
48792;BME280;34587;48.816;9.420;2023-03-11T17:05:08;98195.78;;;4.41;49.66
48792;BME280;34587;48.816;9.420;2023-03-11T17:07:33;98205.16;;;4.47;52.55
48792;BME280;34587;48.816;9.420;2023-03-11T17:09:59;98203.50;;;4.32;51.29
48792;BME280;34587;48.816;9.420;2023-03-11T17:12:25;98204.34;;;4.34;50.57
48792;BME280;34587;48.816;9.420;2023-03-11T17:14:51;98216.34;;;4.26;50.09
48792;BME280;34587;48.816;9.420;2023-03-11T17:17:17;98209.50;;;4.20;49.13
48792;BME280;34587;48.816;9.420;2023-03-11T17:19:43;98216.34;;;4.15;49.37
48792;BME280;34587;48.816;9.420;2023-03-11T17:22:08;98214.63;;;4.16;49.40
48792;BME280;34587;48.816;9.420;2023-03-11T17:24:35;98220.63;;;4.22;48.94
48792;BME280;34587;48.816;9.420;2023-03-11T17:27:00;98227.50;;;4.02;50.04
48792;BME280;34587;48.816;9.420;2023-03-11T17:29:26;98237.72;;;3.90;51.00
48792;BME280;34587;48.816;9.420;2023-03-11T17:31:51;98235.16;;;3.96;50.42
48792;BME280;34587;48.816;9.420;2023-03-11T17:34:16;98242.84;;;3.80;50.32
48792;BME280;34587;48.816;9.420;2023-03-11T17:36:43;98241.16;;;3.79;51.48
48792;BME280;34587;48.816;9.420;2023-03-11T17:39:08;98248.81;;;3.81;49.90
48792;BME280;34587;48.816;9.420;2023-03-11T17:41:33;98248.00;;;3.83;50.36
48792;BME280;34587;48.816;9.420;2023-03-11T17:43:59;98259.91;;;3.66;50.32
48792;BME280;34587;48.816;9.420;2023-03-11T17:46:24;98263.34;;;3.68;51.02
48792;BME280;34587;48.816;9.420;2023-03-11T17:48:50;98270.16;;;3.55;51.26
48792;BME280;34587;48.816;9.420;2023-03-11T17:51:21;98271.84;;;3.43;51.66
48792;BME280;34587;48.816;9.420;2023-03-11T17:53:48;98282.06;;;3.29;51.26
48792;BME280;34587;48.816;9.420;2023-03-11T17:56:16;98278.63;;;3.25;51.08
48792;BME280;34587;48.816;9.420;2023-03-11T17:58:41;98280.31;;;3.20;51.54
48792;BME280;34587;48.816;9.420;2023-03-11T18:01:12;98280.25;;;3.08;51.20
48792;BME280;34587;48.816;9.420;2023-03-11T18:03:38;98288.75;;;2.98;51.47
48792;BME280;34587;48.816;9.420;2023-03-11T18:06:04;98290.44;;;2.93;52.04
48792;BME280;34587;48.816;9.420;2023-03-11T18:08:31;98285.28;;;2.85;52.89
48792;BME280;34587;48.816;9.420;2023-03-11T18:11:02;98283.50;;;2.67;54.65
48792;BME280;34587;48.816;9.420;2023-03-11T18:13:28;98294.59;;;2.68;54.48
48792;BME280;34587;48.816;9.420;2023-03-11T18:15:58;98303.84;;;2.49;54.00
48792;BME280;34587;48.816;9.420;2023-03-11T18:18:24;98306.34;;;2.41;54.59
48792;BME280;34587;48.816;9.420;2023-03-11T18:20:49;98308.06;;;2.44;54.75
48792;BME280;34587;48.816;9.420;2023-03-11T18:23:15;98309.69;;;2.29;54.88
48792;BME280;34587;48.816;9.420;2023-03-11T18:25:40;98318.16;;;2.25;55.89
48792;BME280;34587;48.816;9.420;2023-03-11T18:28:05;98318.94;;;2.15;58.02
48792;BME280;34587;48.816;9.420;2023-03-11T18:30:31;98323.16;;;2.09;55.85
48792;BME280;34587;48.816;9.420;2023-03-11T18:32:56;98326.44;;;1.97;57.46
48792;BME280;34587;48.816;9.420;2023-03-11T18:35:22;98325.56;;;1.92;56.86
48792;BME280;34587;48.816;9.420;2023-03-11T18:37:47;98325.50;;;1.86;58.29
48792;BME280;34587;48.816;9.420;2023-03-11T18:40:13;98327.13;;;1.77;59.79
48792;BME280;34587;48.816;9.420;2023-03-11T18:42:38;98330.38;;;1.64;59.35
48792;BME280;34587;48.816;9.420;2023-03-11T18:45:04;98333.72;;;1.57;61.19
48792;BME280;34587;48.816;9.420;2023-03-11T18:47:33;98326.81;;;1.47;60.16
48792;BME280;34587;48.816;9.420;2023-03-11T18:49:58;98340.34;;;1.38;60.32
48792;BME280;34587;48.816;9.420;2023-03-11T18:52:24;98341.84;;;1.22;61.76
48792;BME280;34587;48.816;9.420;2023-03-11T18:54:49;98346.13;;;1.23;63.52
48792;BME280;34587;48.816;9.420;2023-03-11T18:57:14;98340.06;;;1.15;62.82